createdAt,value
2022-09-05T00:02:57.316Z,100635.91
2022-09-05T00:05:25.136Z,100636.72
2022-09-05T00:08:00.365Z,100644.37
2022-09-05T00:11:41.852Z,100641.66
2022-09-05T00:13:39.774Z,100647.97
2022-09-05T00:16:43.088Z,100640.75
2022-09-05T00:24:19.855Z,100643.06
2022-09-05T00:24:30.631Z,100640.66
2022-09-05T00:26:26.208Z,100646.22
2022-09-05T00:29:20.389Z,100635.41
2022-09-05T00:32:17.260Z,100636.63
2022-09-05T00:35:11.362Z,100636.19
2022-09-05T00:37:42.227Z,100642.09
2022-09-05T00:40:29.708Z,100643.06
2022-09-05T00:43:04.265Z,100633.94
2022-09-05T00:45:36.147Z,100633.66
2022-09-05T00:48:12.519Z,100636.94
2022-09-05T00:50:59.167Z,100637.69
2022-09-05T00:53:34.232Z,100637.94
2022-09-05T00:56:39.511Z,100638.41
2022-09-05T00:59:41.313Z,100640.69
2022-09-05T01:02:25.525Z,100632.81
2022-09-05T01:05:26.789Z,100632.38
2022-09-05T01:08:03.506Z,100633.91
2022-09-05T01:10:58.376Z,100627.25
2022-09-05T01:13:32.143Z,100627.03
2022-09-05T01:16:13.338Z,100629.50
2022-09-05T01:19:23.287Z,100627.97
2022-09-05T01:22:22.006Z,100631.81
2022-09-05T01:25:12.816Z,100627.19
2022-09-05T01:29:17.700Z,100627.69
2022-09-05T01:31:03.101Z,100628.13
2022-09-05T01:34:12.132Z,100621.47
2022-09-05T01:36:53.832Z,100624.47
2022-09-05T01:40:11.076Z,100626.72
2022-09-05T01:42:50.548Z,100629.94
2022-09-05T01:45:32.779Z,100632.72
2022-09-05T01:48:13.179Z,100626.81
2022-09-05T01:50:51.053Z,100626.09
2022-09-05T01:53:55.659Z,100629.91
2022-09-05T01:56:32.091Z,100635.00
2022-09-05T01:59:18.001Z,100632.03
2022-09-05T02:02:01.885Z,100631.56
2022-09-05T02:04:43.606Z,100629.75
2022-09-05T02:07:32.409Z,100629.69
2022-09-05T02:10:25.466Z,100627.88
2022-09-05T02:13:04.051Z,100630.72
2022-09-05T02:15:59.941Z,100630.84
2022-09-05T02:18:52.404Z,100632.50
2022-09-05T02:21:55.633Z,100632.69
2022-09-05T02:24:37.060Z,100636.13
2022-09-05T02:27:46.143Z,100631.59
2022-09-05T02:30:24.728Z,100639.03
2022-09-05T02:33:04.713Z,100631.66
2022-09-05T02:35:32.127Z,100634.66
2022-09-05T02:40:02.344Z,100626.16
2022-09-05T02:45:12.794Z,100631.69
2022-09-05T02:45:24.379Z,100638.78
2022-09-05T02:47:13.555Z,100632.31
2022-09-05T02:54:27.800Z,100634.59
2022-09-05T02:57:39.469Z,100637.37
2022-09-05T02:57:39.470Z,100636.72
2022-09-05T02:59:36.200Z,100643.22
2022-09-05T03:02:26.272Z,100648.81
2022-09-05T03:05:12.988Z,100645.53
2022-09-05T03:08:00.167Z,100650.09
2022-09-05T03:10:54.675Z,100651.03
2022-09-05T03:13:48.801Z,100647.56
2022-09-05T03:16:47.470Z,100653.50
2022-09-05T03:19:53.962Z,100654.00
2022-09-05T03:22:30.238Z,100654.47
2022-09-05T03:25:06.012Z,100652.34
2022-09-05T03:27:42.437Z,100651.19
2022-09-05T03:30:13.138Z,100655.16
2022-09-05T03:33:08.709Z,100660.91
2022-09-05T03:36:11.381Z,100652.00
2022-09-05T03:39:03.738Z,100658.09
2022-09-05T03:42:00.087Z,100662.53
2022-09-05T03:44:46.423Z,100668.31
2022-09-05T03:48:02.243Z,100674.75
2022-09-05T03:57:07.415Z,100668.00
2022-09-05T03:57:14.512Z,100680.00
2022-09-05T03:57:24.261Z,100673.06
2022-09-05T03:59:57.749Z,100680.97
2022-09-05T04:05:15.211Z,100686.53
2022-09-05T04:08:16.191Z,100682.19
2022-09-05T04:08:34.320Z,100686.19
2022-09-05T04:11:08.876Z,100688.37
2022-09-05T04:13:52.681Z,100686.69
2022-09-05T04:16:28.454Z,100682.72
2022-09-05T04:19:14.661Z,100692.75
2022-09-05T04:21:47.145Z,100707.56
2022-09-05T04:24:29.082Z,100707.13
2022-09-05T04:27:00.433Z,100703.28
2022-09-05T04:29:47.643Z,100706.59
2022-09-05T04:32:31.643Z,100720.47
2022-09-05T04:35:34.345Z,100711.72
2022-09-05T04:38:18.687Z,100711.87
2022-09-05T04:41:11.343Z,100717.03
2022-09-05T04:43:42.361Z,100713.09
2022-09-05T04:46:19.371Z,100725.19
2022-09-05T04:48:52.402Z,100721.37
2022-09-05T04:51:44.089Z,100723.16
2022-09-05T04:54:50.266Z,100726.84
2022-09-05T04:57:35.361Z,100726.22
2022-09-05T05:04:22.434Z,100735.41
2022-09-05T05:06:11.396Z,100728.06
2022-09-05T05:06:29.155Z,100726.53
2022-09-05T05:09:00.998Z,100730.56
2022-09-05T05:17:58.767Z,100730.84
2022-09-05T05:18:07.470Z,100731.53
2022-09-05T05:18:39.553Z,100730.50
2022-09-05T05:21:10.530Z,100728.22
2022-09-05T05:23:41.856Z,100731.47
2022-09-05T05:26:13.192Z,100734.94
2022-09-05T05:28:55.912Z,100733.03
2022-09-05T05:31:32.283Z,100731.44
2022-09-05T05:34:07.970Z,100739.16
2022-09-05T05:37:02.946Z,100736.69
2022-09-05T05:39:32.072Z,100733.44
2022-09-05T05:42:19.371Z,100732.50
2022-09-05T05:44:53.893Z,100732.19
2022-09-05T05:47:42.441Z,100736.62
2022-09-05T05:50:36.320Z,100745.22
2022-09-05T05:53:42.929Z,100740.94
2022-09-05T05:56:30.425Z,100750.91
2022-09-05T05:59:35.704Z,100741.91
2022-09-05T06:02:18.021Z,100745.22
2022-09-05T06:05:24.886Z,100739.53
2022-09-05T06:10:58.927Z,100741.06
2022-09-05T06:14:57.481Z,100737.16
2022-09-05T06:15:09.055Z,100735.31
2022-09-05T06:17:55.214Z,100733.03
2022-09-05T06:22:08.553Z,100739.59
2022-09-05T06:24:26.300Z,100734.44
2022-09-05T06:27:19.298Z,100740.84
2022-09-05T06:30:04.163Z,100735.44
2022-09-05T06:33:02.763Z,100738.84
2022-09-05T06:35:41.174Z,100741.87
2022-09-05T06:38:29.489Z,100746.41
2022-09-05T06:41:13.473Z,100750.97
2022-09-05T06:44:02.300Z,100748.87
2022-09-05T06:46:54.216Z,100753.56
2022-09-05T06:49:37.429Z,100753.91
2022-09-05T06:52:28.252Z,100753.44
2022-09-05T06:55:12.506Z,100759.34
2022-09-05T06:58:01.940Z,100760.59
2022-09-05T07:00:40.723Z,100756.16
2022-09-05T07:03:30.576Z,100762.22
2022-09-05T07:06:09.814Z,100758.50
2022-09-05T07:08:55.809Z,100760.59
2022-09-05T07:11:36.610Z,100759.16
2022-09-05T07:14:08.957Z,100757.84
2022-09-05T07:16:47.542Z,100755.53
2022-09-05T07:19:27.478Z,100757.66
2022-09-05T07:22:29.356Z,100754.44
2022-09-05T07:25:26.480Z,100764.78
2022-09-05T07:28:29.029Z,100765.91
2022-09-05T07:30:59.358Z,100759.59
2022-09-05T07:33:29.837Z,100754.06
2022-09-05T07:36:08.849Z,100764.44
2022-09-05T07:38:55.047Z,100757.25
2022-09-05T07:41:30.722Z,100761.09
2022-09-05T07:44:03.439Z,100757.97
2022-09-05T07:46:33.699Z,100752.69
2022-09-05T07:49:06.357Z,100755.84
2022-09-05T07:56:51.098Z,100750.88
2022-09-05T07:56:53.850Z,100756.97
2022-09-05T07:57:29.935Z,100752.72
2022-09-05T08:00:25.585Z,100749.97
2022-09-05T08:02:56.045Z,100744.12
2022-09-05T08:05:34.677Z,100741.19
2022-09-05T08:08:09.063Z,100741.81
2022-09-05T08:11:25.069Z,100738.97
2022-09-05T08:13:49.574Z,100740.25
2022-09-05T08:16:20.323Z,100741.63
2022-09-05T08:18:50.333Z,100740.94
2022-09-05T08:21:27.120Z,100741.97
2022-09-05T08:24:13.667Z,100737.59
2022-09-05T08:26:47.215Z,100740.88
2022-09-05T08:29:37.790Z,100737.19
2022-09-05T08:32:21.320Z,100739.97
2022-09-05T08:34:54.505Z,100729.03
2022-09-05T08:37:24.502Z,100730.44
2022-09-05T08:40:10.707Z,100735.41
2022-09-05T08:42:58.979Z,100735.59
2022-09-05T08:46:41.899Z,100727.59
2022-09-05T08:48:55.689Z,100734.00
2022-09-05T08:52:08.724Z,100718.78
2022-09-05T08:55:05.780Z,100726.78
2022-09-05T08:57:46.943Z,100721.78
2022-09-05T09:00:20.612Z,100719.34
2022-09-05T09:03:04.908Z,100717.00
2022-09-05T09:06:13.190Z,100718.09
2022-09-05T09:08:35.270Z,100715.13
2022-09-05T09:11:06.183Z,100709.56
2022-09-05T09:13:42.306Z,100702.69
2022-09-05T09:16:30.501Z,100700.50
2022-09-05T09:19:07.532Z,100694.69
2022-09-05T09:21:42.539Z,100695.66
2022-09-05T09:24:33.315Z,100696.94
2022-09-05T09:27:05.307Z,100694.78
2022-09-05T09:29:36.868Z,100695.72
2022-09-05T09:32:31.580Z,100697.25
2022-09-05T09:35:13.387Z,100696.75
2022-09-05T09:37:59.350Z,100706.66
2022-09-05T09:40:36.525Z,100706.97
2022-09-05T09:43:14.239Z,100707.00
2022-09-05T09:45:52.221Z,100699.16
2022-09-05T09:48:56.773Z,100697.41
2022-09-05T09:51:38.026Z,100696.66
2022-09-05T09:54:38.124Z,100692.91
2022-09-05T09:57:36.663Z,100696.25
2022-09-05T10:00:13.499Z,100691.00
2022-09-05T10:04:55.565Z,100684.84
2022-09-05T10:10:55.283Z,100682.41
2022-09-05T10:10:58.571Z,100687.47
2022-09-05T10:12:53.281Z,100688.47
2022-09-05T10:16:04.068Z,100688.13
2022-09-05T10:18:48.931Z,100682.25
2022-09-05T10:21:34.849Z,100679.81
2022-09-05T10:24:14.955Z,100674.41
2022-09-05T10:26:57.316Z,100677.06
2022-09-05T10:29:37.372Z,100674.97
2022-09-05T10:35:03.803Z,100669.09
2022-09-05T10:35:13.521Z,100674.97
2022-09-05T10:37:51.244Z,100673.66
2022-09-05T10:40:22.867Z,100665.84
2022-09-05T10:43:02.512Z,100661.41
2022-09-05T10:45:44.417Z,100654.63
2022-09-05T10:48:23.047Z,100649.34
2022-09-05T10:51:03.272Z,100645.66
2022-09-05T10:53:49.946Z,100646.47
2022-09-05T10:56:26.132Z,100634.63
2022-09-05T10:59:54.156Z,100642.75
2022-09-05T11:02:29.728Z,100640.41
2022-09-05T11:05:20.467Z,100639.06
2022-09-05T11:08:06.719Z,100634.94
2022-09-05T11:11:04.140Z,100635.84
2022-09-05T11:13:51.466Z,100635.81
2022-09-05T11:16:36.462Z,100635.81
2022-09-05T11:19:14.547Z,100630.63
2022-09-05T11:22:05.298Z,100627.16
2022-09-05T11:25:04.035Z,100621.28
2022-09-05T11:27:36.281Z,100622.38
2022-09-05T11:30:30.555Z,100625.25
2022-09-05T11:38:30.574Z,100617.34
2022-09-05T11:39:47.922Z,100619.72
2022-09-05T11:39:53.054Z,100612.09
2022-09-05T11:42:07.090Z,100619.69
2022-09-05T11:44:38.827Z,100621.53
2022-09-05T11:47:34.982Z,100617.28
2022-09-05T11:50:27.626Z,100624.66
2022-09-05T11:53:22.420Z,100610.34
2022-09-05T11:56:01.813Z,100608.62
2022-09-05T11:58:43.400Z,100611.41
2022-09-05T12:01:41.517Z,100609.44
2022-09-05T12:04:23.640Z,100610.03
2022-09-05T12:07:00.593Z,100602.78
2022-09-05T12:09:31.874Z,100610.84
2022-09-05T12:12:41.451Z,100600.75
2022-09-05T12:15:17.901Z,100601.97
2022-09-05T12:18:19.425Z,100601.25
2022-09-05T12:20:58.526Z,100601.84
2022-09-05T12:24:24.850Z,100603.31
2022-09-05T12:27:41.797Z,100590.75
2022-09-05T12:30:00.066Z,100595.88
2022-09-05T12:33:48.028Z,100591.50
2022-09-05T12:36:12.539Z,100590.44
2022-09-05T12:40:57.583Z,100589.59
2022-09-05T12:42:14.703Z,100591.12
2022-09-05T12:44:58.857Z,100576.69
2022-09-05T12:47:30.169Z,100577.62
2022-09-05T12:50:14.472Z,100575.53
2022-09-05T12:52:46.392Z,100561.09
2022-09-05T12:55:17.255Z,100570.22
2022-09-05T13:02:43.922Z,100568.50
2022-09-05T13:03:09.851Z,100559.63
2022-09-05T13:03:53.448Z,100560.16
2022-09-05T13:06:39.159Z,100557.69
2022-09-05T13:09:13.821Z,100558.41
2022-09-05T13:14:54.646Z,100549.44
2022-09-05T13:14:55.594Z,100557.84
2022-09-05T13:17:51.423Z,100554.03
2022-09-05T13:20:21.930Z,100544.31
2022-09-05T13:22:52.316Z,100543.84
2022-09-05T13:25:27.142Z,100538.87
2022-09-05T13:28:01.503Z,100538.72
2022-09-05T13:37:39.499Z,100538.09
2022-09-05T13:38:03.703Z,100533.72
2022-09-05T13:38:21.155Z,100539.34
2022-09-05T13:39:22.925Z,100535.84
2022-09-05T13:41:56.756Z,100530.78
2022-09-05T13:44:27.884Z,100529.25
2022-09-05T13:47:30.134Z,100530.59
2022-09-05T13:50:07.527Z,100527.12
2022-09-05T13:52:39.469Z,100520.47
2022-09-05T13:55:23.479Z,100527.22
2022-09-05T13:58:09.479Z,100515.63
2022-09-05T14:00:39.649Z,100517.59
2022-09-05T14:03:31.612Z,100513.81
2022-09-05T14:06:45.779Z,100513.62
2022-09-05T14:09:38.596Z,100504.31
2022-09-05T14:12:37.280Z,100506.09
2022-09-05T14:15:24.971Z,100497.69
2022-09-05T14:18:21.332Z,100498.13
2022-09-05T14:21:15.839Z,100491.00
2022-09-05T14:23:55.994Z,100489.19
2022-09-05T14:26:29.041Z,100486.66
2022-09-05T14:29:14.488Z,100487.34
2022-09-05T14:37:37.099Z,100492.47
2022-09-05T14:37:50.391Z,100492.38
2022-09-05T14:38:13.365Z,100482.84
2022-09-05T14:41:01.070Z,100483.63
2022-09-05T14:44:05.310Z,100474.78
2022-09-05T14:46:49.764Z,100472.28
2022-09-05T14:49:49.348Z,100477.53
2022-09-05T14:52:23.606Z,100476.81
2022-09-05T15:02:43.340Z,100481.53
2022-09-05T15:02:44.985Z,100479.78
2022-09-05T15:06:36.393Z,100471.25
2022-09-05T15:12:18.912Z,100467.28
2022-09-05T15:12:21.031Z,100465.31
2022-09-05T15:15:09.581Z,100466.56
2022-09-05T15:17:38.185Z,100458.66
2022-09-05T15:20:08.408Z,100464.56
2022-09-05T15:22:38.534Z,100465.19
2022-09-05T15:25:17.804Z,100463.91
2022-09-05T15:27:46.437Z,100465.38
2022-09-05T15:30:34.717Z,100463.63
2022-09-05T15:33:25.752Z,100465.72
2022-09-05T15:35:54.729Z,100466.41
2022-09-05T15:38:56.352Z,100462.25
2022-09-05T15:41:26.161Z,100455.03
2022-09-05T15:44:03.363Z,100457.53
2022-09-05T15:46:46.334Z,100456.31
2022-09-05T15:49:28.773Z,100456.19
2022-09-05T15:51:59.424Z,100459.19
2022-09-05T15:54:37.396Z,100453.66
2022-09-05T15:57:09.011Z,100457.09
2022-09-05T15:59:49.956Z,100451.00
2022-09-05T16:02:21.450Z,100448.66
2022-09-05T16:10:26.712Z,100444.94
2022-09-05T16:10:38.780Z,100443.94
2022-09-05T16:11:06.961Z,100446.84
2022-09-05T16:13:53.251Z,100449.94
2022-09-05T16:21:51.329Z,100445.09
2022-09-05T16:23:33.605Z,100427.75
2022-09-05T16:23:35.248Z,100434.56
2022-09-05T16:25:45.663Z,100430.97
2022-09-05T16:28:18.805Z,100429.41
2022-09-05T16:30:47.032Z,100431.69
2022-09-05T16:33:22.360Z,100432.38
2022-09-05T16:35:57.047Z,100423.75
2022-09-05T16:38:50.526Z,100423.34
2022-09-05T16:41:39.928Z,100420.72
2022-09-05T16:44:22.597Z,100427.16
2022-09-05T16:47:40.124Z,100426.59
2022-09-05T16:50:23.986Z,100428.97
2022-09-05T16:52:54.130Z,100433.94
2022-09-05T16:55:32.525Z,100432.41
2022-09-05T16:58:03.436Z,100434.41
2022-09-05T17:01:19.090Z,100434.00
2022-09-05T17:03:54.206Z,100430.00
2022-09-05T17:07:09.053Z,100427.31
2022-09-05T17:09:36.328Z,100428.41
2022-09-05T17:12:22.154Z,100430.78
2022-09-05T17:14:53.243Z,100430.13
2022-09-05T17:18:18.393Z,100434.16
2022-09-05T17:20:21.299Z,100435.09
2022-09-05T17:27:29.789Z,100440.22
2022-09-05T17:29:33.328Z,100441.50
2022-09-05T17:29:34.290Z,100441.59
2022-09-05T17:32:01.851Z,100444.50
2022-09-05T17:34:58.695Z,100442.06
2022-09-05T17:38:31.596Z,100450.97
2022-09-05T17:40:59.492Z,100448.97
2022-09-05T17:43:28.907Z,100440.25
2022-09-05T17:46:15.607Z,100448.19
2022-09-05T17:48:46.312Z,100454.37
2022-09-05T17:51:28.484Z,100450.03
2022-09-05T17:54:07.652Z,100459.03
2022-09-05T17:56:37.638Z,100453.81
2022-09-05T17:59:26.812Z,100464.47
2022-09-05T18:02:03.247Z,100464.53
2022-09-05T18:04:39.967Z,100471.56
2022-09-05T18:07:19.636Z,100478.66
2022-09-05T18:13:13.551Z,100473.38
2022-09-05T18:15:40.044Z,100479.53
2022-09-05T18:19:00.978Z,100479.53
2022-09-05T18:21:21.842Z,100477.78
2022-09-05T18:24:00.202Z,100483.06
2022-09-05T18:26:28.624Z,100483.88
2022-09-05T18:29:31.066Z,100488.94
2022-09-05T18:32:12.981Z,100488.75
2022-09-05T18:34:42.137Z,100487.00
2022-09-05T18:37:39.018Z,100493.09
2022-09-05T18:40:45.954Z,100494.81
2022-09-05T18:43:23.966Z,100495.59
2022-09-05T18:45:55.872Z,100500.03
2022-09-05T18:49:02.282Z,100503.25
2022-09-05T18:51:35.671Z,100509.31
2022-09-05T18:54:09.542Z,100498.37
2022-09-05T18:57:19.766Z,100505.31
2022-09-05T18:59:48.497Z,100507.16
2022-09-05T19:02:40.368Z,100503.66
2022-09-05T19:05:33.557Z,100500.25
2022-09-05T19:08:06.197Z,100508.75
2022-09-05T19:10:40.880Z,100495.50
2022-09-05T19:13:13.528Z,100492.84
2022-09-05T19:16:05.304Z,100492.75
2022-09-05T19:19:16.336Z,100496.84
2022-09-05T19:22:02.423Z,100501.97
2022-09-05T19:24:45.474Z,100495.50
2022-09-05T19:27:55.384Z,100491.37
2022-09-05T19:36:51.821Z,100491.44
2022-09-05T19:37:08.545Z,100492.53
2022-09-05T19:37:12.348Z,100486.69
2022-09-05T19:38:53.451Z,100487.13
2022-09-05T19:47:28.431Z,100489.84
2022-09-05T19:47:48.704Z,100484.75
2022-09-05T19:47:55.535Z,100481.19
2022-09-05T19:50:20.356Z,100489.81
2022-09-05T19:52:51.065Z,100489.66
2022-09-05T19:55:24.177Z,100488.56
2022-09-05T19:58:20.136Z,100492.81
2022-09-05T20:00:45.932Z,100482.47
2022-09-05T20:03:28.715Z,100478.06
2022-09-05T20:06:24.766Z,100484.28
2022-09-05T20:09:25.057Z,100487.84
2022-09-05T20:11:54.918Z,100483.31
2022-09-05T20:14:30.788Z,100485.03
2022-09-05T20:17:18.726Z,100483.25
2022-09-05T20:19:47.151Z,100485.13
2022-09-05T20:22:49.190Z,100482.97
2022-09-05T20:25:19.797Z,100477.28
2022-09-05T20:28:10.251Z,100476.50
2022-09-05T20:30:43.565Z,100481.13
2022-09-05T20:33:24.301Z,100472.69
2022-09-05T20:43:12.375Z,100477.03
2022-09-05T20:43:22.841Z,100474.53
2022-09-05T20:43:23.238Z,100480.56
2022-09-05T20:44:24.967Z,100473.63
2022-09-05T20:49:20.880Z,100485.84
2022-09-05T20:54:16.039Z,100481.69
2022-09-05T20:54:17.370Z,100487.09
2022-09-05T20:55:42.128Z,100486.38
2022-09-05T20:58:14.846Z,100488.28
2022-09-05T21:01:15.659Z,100485.44
2022-09-05T21:03:38.135Z,100491.56
2022-09-05T21:06:11.841Z,100485.63
2022-09-05T21:08:40.127Z,100490.69
2022-09-05T21:11:07.834Z,100492.81
2022-09-05T21:13:51.872Z,100487.69
2022-09-05T21:16:22.783Z,100492.22
2022-09-05T21:18:50.953Z,100496.53
2022-09-05T21:21:44.896Z,100496.50
2022-09-05T21:24:17.414Z,100494.69
2022-09-05T21:26:48.198Z,100493.28
2022-09-05T21:29:23.071Z,100490.41
2022-09-05T21:31:57.520Z,100502.38
2022-09-05T21:34:31.917Z,100499.69
2022-09-05T21:37:07.037Z,100487.13
2022-09-05T21:39:40.084Z,100485.22
2022-09-05T21:43:13.318Z,100488.28
2022-09-05T21:47:40.323Z,100485.16
2022-09-05T21:47:53.158Z,100493.25
2022-09-05T21:50:31.003Z,100481.97
2022-09-05T21:53:52.369Z,100487.22
2022-09-05T21:59:18.104Z,100483.94
2022-09-05T21:59:29.710Z,100486.47
2022-09-05T22:01:51.974Z,100492.94
2022-09-05T22:04:17.636Z,100491.81
2022-09-05T22:06:48.129Z,100499.38
2022-09-05T22:09:17.705Z,100494.75
2022-09-05T22:11:50.438Z,100492.19
2022-09-05T22:14:20.204Z,100489.84
2022-09-05T22:16:50.532Z,100488.59
2022-09-05T22:19:22.925Z,100482.88
2022-09-05T22:21:52.804Z,100483.72
2022-09-05T22:24:21.323Z,100492.59
2022-09-05T22:27:12.570Z,100492.06
2022-09-05T22:29:40.686Z,100480.81
2022-09-05T22:32:08.141Z,100480.66
2022-09-05T22:34:35.531Z,100487.97
2022-09-05T22:37:03.421Z,100489.00
2022-09-05T22:39:37.863Z,100470.56
2022-09-05T22:42:10.185Z,100473.59
2022-09-05T22:44:41.435Z,100479.34
2022-09-05T22:47:10.015Z,100473.72
2022-09-05T22:49:37.875Z,100483.31
2022-09-05T22:52:06.994Z,100483.38
2022-09-05T22:54:36.984Z,100477.94
2022-09-05T22:57:04.971Z,100481.34
2022-09-05T22:59:32.356Z,100475.81
2022-09-05T23:02:00.173Z,100479.91
2022-09-05T23:04:28.240Z,100478.25
2022-09-05T23:06:55.777Z,100478.13
2022-09-05T23:09:23.512Z,100468.34
2022-09-05T23:11:50.900Z,100472.72
2022-09-05T23:14:18.306Z,100468.38
2022-09-05T23:16:45.950Z,100462.97
2022-09-05T23:19:13.366Z,100467.34
2022-09-05T23:21:40.944Z,100465.28
2022-09-05T23:24:08.627Z,100474.22
2022-09-05T23:26:35.992Z,100465.94
2022-09-05T23:29:03.475Z,100469.94
2022-09-05T23:31:31.180Z,100469.25
2022-09-05T23:33:58.593Z,100455.59
2022-09-05T23:36:26.057Z,100467.28
2022-09-05T23:38:53.728Z,100457.87
2022-09-05T23:41:21.177Z,100462.03
2022-09-05T23:43:48.577Z,100455.25
2022-09-05T23:46:16.333Z,100444.34
2022-09-05T23:48:43.761Z,100451.53
2022-09-05T23:51:12.423Z,100451.28
2022-09-05T23:53:40.384Z,100450.72
2022-09-05T23:56:09.002Z,100452.88
2022-09-05T23:58:36.830Z,100453.50
